Terminal Aerodrome Forecast
Issued by NWS Hastings, NE

Home | Current Version | Previous Version | Text Only | Print | Product List | Glossary On
Versions: 1 2 3 4 5 6 7 8 9 10 11 12 13 14 15 16 17 18 19 20 21
663
FTUS45 KGID 271739
TAFEAR
TAF
KEAR 271739Z 2718/2818 15015G23KT P6SM BKN020
     FM272200 16021G30KT P6SM SCT030 SCT100
     FM280300 16019G27KT P6SM VCTS BKN050CB WS010/20045KT
     FM280900 18013G21KT P6SM BKN050 WS010/21040KT
     FM281100 21010KT P6SM SCT120
     FM281500 33008KT P6SM FEW200
      AMD LTD TO CLD VIS AND WIND=

USA.gov is the U.S. government's official web portal to all federal, state and local government web resources and services.